Time;durP1;ratioP1;P1;durP2;ratioP2;P2;SDS_P1;SDS_P2;PMS_P1;PMS_P2;Temp;Humidity;BMP_temperature;BMP_pressure;BME280_temperature;BME280_humidity;BME280_pressure;Samples;Min_cycle;Max_cycle;Signal;HPM_P1;HPM_P2
2022/11/13 00:01:11;;;;;;;78.78;43.78;;;4.60;66.50;;;;;;5853929;24;114401;-83
2022/11/13 00:04:14;;;;;;;81.30;47.97;;;4.60;66.70;;;;;;5783443;24;115060;-80
2022/11/13 00:07:04;;;;;;;85.03;48.75;;;4.60;66.90;;;;;;5778607;24;114892;-81
2022/11/13 00:10:27;;;;;;;87.93;49.85;;;4.60;67.20;;;;;;5864802;23;114655;-81
2022/11/13 00:13:28;;;;;;;94.82;51.25;;;4.60;66.80;;;;;;5881033;23;114643;-80
2022/11/13 00:24:42;;;;;;;118.10;64.50;;;4.60;66.40;;;;;;5907675;23;115201;-80
2022/11/13 00:28:18;;;;;;;110.65;60.55;;;4.50;66.80;;;;;;5924414;23;114566;-81
2022/11/13 00:32:11;;;;;;;105.72;61.83;;;4.50;67.00;;;;;;5899462;23;114635;-80
2022/11/13 00:35:57;;;;;;;109.38;60.60;;;4.40;66.90;;;;;;5870921;23;117946;-80
2022/11/13 00:40:13;;;;;;;109.70;62.35;;;4.50;66.70;;;;;;5864528;23;114626;-81
2022/11/13 00:44:07;;;;;;;110.50;63.67;;;4.40;66.60;;;;;;5907091;23;114456;-80
2022/11/13 00:47:05;;;;;;;102.82;56.50;;;4.30;66.50;;;;;;5907099;23;114648;-80
2022/11/13 00:54:15;;;;;;;93.38;51.75;;;4.30;66.80;;;;;;5880178;23;115423;-80
2022/11/13 00:58:04;;;;;;;92.13;53.30;;;4.20;67.10;;;;;;5763810;24;114902;-80
2022/11/13 01:01:23;;;;;;;101.93;57.72;;;4.20;66.70;;;;;;5770127;24;114959;-80
2022/11/13 01:13:25;;;;;;;101.17;58.93;;;4.10;67.00;;;;;;5706218;24;114823;-80
2022/11/13 01:16:25;;;;;;;106.18;59.95;;;4.10;66.90;;;;;;5722979;24;114499;-80
2022/11/13 01:19:11;;;;;;;102.22;58.60;;;4.10;66.90;;;;;;5763106;24;114879;-80
2022/11/13 01:22:35;;;;;;;111.65;60.38;;;4.10;66.90;;;;;;5744735;24;116006;-80
2022/11/13 01:25:21;;;;;;;102.80;58.72;;;4.10;66.90;;;;;;5745674;24;114466;-80
2022/11/13 01:31:39;;;;;;;97.03;55.58;;;4.10;66.70;;;;;;5799303;24;114458;-81
2022/11/13 01:34:56;;;;;;;97.78;55.35;;;4.00;66.90;;;;;;5800871;24;114578;-81
2022/11/13 01:38:03;;;;;;;96.60;55.60;;;4.00;66.90;;;;;;5750896;24;114356;-81
2022/11/13 01:41:11;;;;;;;97.68;55.67;;;3.90;66.70;;;;;;5773749;24;114526;-81
2022/11/13 01:43:57;;;;;;;96.25;54.67;;;3.90;66.90;;;;;;5798599;24;115426;-81
2022/11/13 01:47:09;;;;;;;93.35;54.70;;;3.90;66.80;;;;;;5817210;24;115020;-80
2022/11/13 01:50:43;;;;;;;97.82;54.38;;;3.90;66.90;;;;;;5741537;24;114698;-81
2022/11/13 01:58:18;;;;;;;;;;;3.80;66.70;;;;;;5693368;24;115070;-81
2022/11/13 02:01:04;;;;;;;94.32;52.88;;;3.80;66.80;;;;;;5767690;24;115199;-81
2022/11/13 02:04:13;;;;;;;92.68;56.42;;;3.80;67.10;;;;;;5827435;24;114461;-82
2022/11/13 02:12:40;;;;;;;100.63;56.97;;;3.90;67.30;;;;;;5911472;23;114860;-82
2022/11/13 02:20:41;;;;;;;74.85;43.30;;;3.80;67.50;;;;;;5825984;24;114291;-81
2022/11/13 02:23:45;;;;;;;72.35;42.45;;;3.70;67.60;;;;;;5799934;24;114442;-82
2022/11/13 02:30:56;;;;;;;77.07;43.15;;;3.80;67.90;;;;;;5719363;24;115333;-82
2022/11/13 02:33:49;;;;;;;76.28;44.80;;;3.80;67.30;;;;;;5742534;24;114401;-82
2022/11/13 02:36:34;;;;;;;72.07;42.30;;;3.80;66.90;;;;;;5774092;24;114398;-82
2022/11/13 02:39:58;;;;;;;71.10;43.03;;;3.80;66.80;;;;;;5773186;24;114483;-82
2022/11/13 02:43:03;;;;;;;87.75;50.47;;;3.80;66.80;;;;;;5721116;24;114952;-83
2022/11/13 02:46:32;;;;;;;83.22;48.63;;;3.70;66.50;;;;;;5721263;24;114718;-82
2022/11/13 02:49:58;;;;;;;78.97;47.30;;;3.70;66.60;;;;;;5729177;24;114406;-82
2022/11/13 02:53:44;;;;;;;91.00;50.53;;;3.60;66.60;;;;;;5790467;24;115803;-82
2022/11/13 02:56:55;;;;;;;83.53;48.92;;;3.60;66.60;;;;;;5732670;24;115514;-80
2022/11/13 03:00:03;;;;;;;82.70;47.30;;;3.50;66.70;;;;;;5748469;24;114481;-82
2022/11/13 03:07:31;;;;;;;81.75;47.42;;;3.30;66.30;;;;;;5826800;24;114942;-82
2022/11/13 03:11:09;;;;;;;74.72;44.40;;;3.20;66.20;;;;;;5840450;24;115070;-81
2022/11/13 03:14:59;;;;;;;75.10;44.05;;;3.20;66.60;;;;;;5829660;24;114299;-82
2022/11/13 03:18:21;;;;;;;76.63;44.72;;;3.20;66.90;;;;;;5802205;24;114430;-82
2022/11/13 03:21:50;;;;;;;80.07;42.92;;;3.10;66.80;;;;;;5815234;24;114785;-82
2022/11/13 03:25:02;;;;;;;74.57;42.38;;;3.10;66.80;;;;;;5800029;24;114626;-82
2022/11/13 03:28:25;;;;;;;71.10;42.58;;;3.20;67.00;;;;;;5828467;24;114403;-82
2022/11/13 03:31:23;;;;;;;67.15;40.13;;;3.10;66.90;;;;;;5828015;24;115147;-82
2022/11/13 03:34:40;;;;;;;71.65;40.42;;;3.10;66.70;;;;;;5853505;24;114899;-82
2022/11/13 03:38:31;;;;;;;70.50;37.78;;;3.00;66.60;;;;;;5827050;24;114938;-83
2022/11/13 03:42:02;;;;;;;68.32;39.15;;;3.00;66.50;;;;;;5883043;23;114621;-82
2022/11/13 03:45:41;;;;;;;75.47;42.00;;;3.00;66.40;;;;;;5863651;23;114284;-80
2022/11/13 03:49:45;;;;;;;73.75;42.08;;;2.90;66.40;;;;;;5879841;23;114968;-81
2022/11/13 03:57:52;;;;;;;72.30;41.70;;;2.90;66.90;;;;;;5772302;24;114338;-81
2022/11/13 04:01:26;;;;;;;76.22;44.65;;;3.00;66.60;;;;;;5772551;24;114391;-81
2022/11/13 04:04:39;;;;;;;78.78;46.55;;;2.90;66.70;;;;;;5771043;24;115094;-80
2022/11/13 04:12:21;;;;;;;75.82;44.72;;;2.90;66.70;;;;;;5771570;24;114523;-80
2022/11/13 04:18:36;;;;;;;79.30;44.53;;;3.00;66.90;;;;;;5771683;24;115450;-80
2022/11/13 04:22:03;;;;;;;80.03;44.85;;;3.00;67.40;;;;;;5797704;24;115574;-79
2022/11/13 04:25:15;;;;;;;76.07;44.38;;;3.10;67.00;;;;;;5818349;24;114594;-80
2022/11/13 04:28:16;;;;;;;76.03;44.45;;;3.10;67.20;;;;;;5788151;24;114903;-79
2022/11/13 04:43:09;;;;;;;67.85;38.55;;;3.20;67.30;;;;;;5771580;24;114651;-80
2022/11/13 04:46:02;;;;;;;69.68;40.00;;;3.20;67.10;;;;;;5769621;24;115141;-80
2022/11/13 04:49:27;;;;;;;66.28;36.67;;;3.20;66.90;;;;;;5771380;24;115157;-80
2022/11/13 04:53:19;;;;;;;74.20;43.30;;;3.20;67.40;;;;;;5741767;24;115041;-81
2022/11/13 04:57:07;;;;;;;72.95;41.05;;;3.20;67.00;;;;;;5771604;24;114758;-80
2022/11/13 05:00:05;;;;;;;65.53;38.25;;;3.10;67.10;;;;;;5770614;24;114983;-81
2022/11/13 05:03:27;;;;;;;65.25;37.13;;;3.10;67.00;;;;;;5779972;24;115633;-81
2022/11/13 05:07:21;;;;;;;67.50;37.55;;;3.10;67.10;;;;;;5854980;24;114245;-81
2022/11/13 05:12:10;;;;;;;62.05;36.03;;;3.10;66.70;;;;;;5842590;24;114503;-80
2022/11/13 05:15:44;;;;;;;68.22;36.95;;;2.90;66.40;;;;;;5783172;24;115106;-81
2022/11/13 05:19:26;;;;;;;72.32;40.00;;;2.90;66.70;;;;;;5778957;24;114764;-80
2022/11/13 05:23:08;;;;;;;73.30;42.60;;;2.80;66.90;;;;;;5774998;24;114474;-81
2022/11/13 05:30:18;;;;;;;81.25;45.85;;;2.80;66.90;;;;;;5718949;24;114397;-80
2022/11/13 05:33:57;;;;;;;71.38;40.33;;;2.90;66.90;;;;;;5719194;24;115098;-80
2022/11/13 05:37:44;;;;;;;81.53;41.47;;;2.80;66.80;;;;;;5673981;24;114811;-80
2022/11/13 05:41:31;;;;;;;67.45;39.60;;;2.80;66.70;;;;;;5706448;24;114748;-79
2022/11/13 05:45:35;;;;;;;72.78;40.83;;;2.80;67.00;;;;;;5736930;24;115342;-80
2022/11/13 05:49:35;;;;;;;74.80;42.00;;;2.80;66.70;;;;;;5718382;24;114954;-80
2022/11/13 05:53:30;;;;;;;67.55;40.97;;;2.80;66.70;;;;;;5706009;24;114472;-80
2022/11/13 05:57:02;;;;;;;71.07;40.15;;;2.80;66.90;;;;;;5791276;24;114968;-80
2022/11/13 06:00:28;;;;;;;68.25;38.38;;;2.70;67.20;;;;;;5825024;24;115495;-80
2022/11/13 06:08:39;;;;;;;75.45;40.63;;;2.90;67.10;;;;;;5642991;25;114641;-80
2022/11/13 06:12:51;;;;;;;66.97;39.15;;;2.90;66.80;;;;;;5666718;24;115327;-79
2022/11/13 06:16:53;;;;;;;73.07;40.45;;;2.90;66.70;;;;;;5667229;24;114965;-81
2022/11/13 06:24:08;;;;;;;76.10;43.45;;;3.00;66.30;;;;;;5030249;27;114880;-81
2022/11/13 06:31:19;;;;;;;76.13;41.67;;;2.90;66.50;;;;;;5029985;27;114657;-81
2022/11/13 06:34:22;;;;;;;79.32;45.90;;;3.00;67.10;;;;;;4969397;27;115526;-81
2022/11/13 06:37:08;;;;;;;76.63;45.53;;;3.10;66.90;;;;;;5019576;27;114621;-81
2022/11/13 06:40:34;;;;;;;74.47;44.95;;;3.10;66.60;;;;;;5018091;27;116866;-81
2022/11/13 06:44:03;;;;;;;77.80;44.80;;;3.20;66.20;;;;;;5003934;28;118163;-81
2022/11/13 06:47:04;;;;;;;71.68;44.58;;;3.20;66.00;;;;;;5000616;28;114566;-81
2022/11/13 06:50:03;;;;;;;70.65;40.33;;;3.30;65.90;;;;;;5006728;28;117892;-82
2022/11/13 06:52:48;;;;;;;71.40;44.47;;;3.40;66.40;;;;;;5002684;28;115511;-82
2022/11/13 06:56:04;;;;;;;73.53;42.90;;;3.50;66.50;;;;;;5001308;28;114933;-81
2022/11/13 06:59:04;;;;;;;75.80;42.07;;;3.60;66.00;;;;;;4993910;28;116150;-81
2022/11/13 07:02:36;;;;;;;67.53;39.95;;;3.70;65.90;;;;;;5002472;28;114791;-81
2022/11/13 07:06:04;;;;;;;72.28;41.97;;;3.80;65.70;;;;;;4985600;28;116014;-81
2022/11/13 07:09:04;;;;;;;72.63;43.40;;;3.90;65.70;;;;;;4971147;28;114849;-81
2022/11/13 07:12:05;;;;;;;73.85;44.35;;;4.00;65.70;;;;;;4989640;28;114973;-81
2022/11/13 07:15:15;;;;;;;69.72;41.47;;;4.20;65.40;;;;;;5003112;28;114617;-82
2022/11/13 07:19:01;;;;;;;70.10;41.17;;;4.30;65.40;;;;;;4980776;28;115020;-82
2022/11/13 07:22:37;;;;;;;63.92;40.58;;;4.50;65.20;;;;;;4946738;28;114929;-82
2022/11/13 07:26:05;;;;;;;60.45;38.97;;;4.60;65.10;;;;;;4899882;28;114507;-81
2022/11/13 07:29:31;;;;;;;73.13;43.47;;;4.70;65.20;;;;;;4889131;28;114934;-81
2022/11/13 07:37:18;;;;;;;66.95;41.45;;;5.00;64.40;;;;;;4900010;28;115826;-82
2022/11/13 07:41:08;;;;;;;66.80;43.35;;;5.20;64.20;;;;;;4904952;28;114825;-82
2022/11/13 07:48:21;;;;;;;65.78;41.53;;;5.30;63.70;;;;;;4869699;28;115549;-82
2022/11/13 07:51:32;;;;;;;66.32;42.85;;;5.40;63.90;;;;;;4855086;28;116540;-82
2022/11/13 07:55:06;;;;;;;74.63;44.60;;;5.60;63.60;;;;;;4879371;28;114692;-81
2022/11/13 07:58:29;;;;;;;67.32;41.20;;;5.70;63.10;;;;;;4891205;28;114562;-81
2022/11/13 08:05:44;;;;;;;69.95;43.47;;;5.90;63.30;;;;;;4965058;28;114697;-81
2022/11/13 08:09:52;;;;;;;69.60;43.22;;;6.10;63.80;;;;;;4879420;28;114866;-82
2022/11/13 08:13:14;;;;;;;66.03;40.38;;;6.20;64.40;;;;;;4866884;28;114890;-82
2022/11/13 08:16:47;;;;;;;64.53;41.22;;;6.20;63.50;;;;;;4853855;28;115049;-83
2022/11/13 08:19:34;;;;;;;60.47;39.33;;;6.40;63.30;;;;;;4825787;28;115852;-81
2022/11/13 08:23:10;;;;;;;60.28;39.40;;;6.40;63.20;;;;;;4835135;29;114783;-81
2022/11/13 08:26:35;;;;;;;61.85;38.80;;;6.50;63.00;;;;;;4762845;29;114724;-82
2022/11/13 08:30:13;;;;;;;64.90;40.45;;;6.70;63.10;;;;;;4773641;29;115960;-81
2022/11/13 08:33:45;;;;;;;73.95;46.47;;;6.80;62.70;;;;;;4777606;29;115456;-81
2022/11/13 08:41:37;;;;;;;73.93;46.63;;;6.90;62.40;;;;;;4791068;29;114970;-81
2022/11/13 08:45:12;;;;;;;71.03;44.83;;;6.90;62.40;;;;;;4749538;29;114994;-81
2022/11/13 08:48:42;;;;;;;74.35;47.20;;;7.00;62.30;;;;;;4706734;29;114707;-81
2022/11/13 08:52:35;;;;;;;65.35;44.67;;;7.20;62.20;;;;;;4736468;29;114595;-81
2022/11/13 08:56:05;;;;;;;67.30;42.85;;;7.20;62.20;;;;;;4686247;29;114945;-81
2022/11/13 09:02:35;;;;;;;66.07;41.90;;;7.40;62.00;;;;;;4724912;29;114807;-81
2022/11/13 09:09:05;;;;;;;66.57;41.67;;;7.60;61.70;;;;;;4743625;29;114545;-82
2022/11/13 09:11:51;;;;;;;77.10;47.40;;;7.60;62.10;;;;;;4725728;29;115268;-82
2022/11/13 09:14:38;;;;;;;73.13;48.38;;;7.70;62.20;;;;;;4801636;29;116783;-81
2022/11/13 09:17:49;;;;;;;72.88;53.20;;;7.80;62.40;;;;;;4829156;29;114813;-82
2022/11/13 09:21:03;;;;;;;73.40;51.58;;;7.80;62.20;;;;;;4840397;28;114909;-82
2022/11/13 09:24:47;;;;;;;75.90;50.03;;;7.90;62.70;;;;;;4865987;28;114980;-82
2022/11/13 09:28:04;;;;;;;71.07;45.05;;;8.10;61.90;;;;;;4932395;28;114527;-83
2022/11/13 09:35:07;;;;;;;65.65;42.40;;;8.20;61.70;;;;;;4932445;28;114876;-82
2022/11/13 09:38:10;;;;;;;65.18;43.58;;;8.30;61.60;;;;;;4921178;28;117580;-83
2022/11/13 09:41:10;;;;;;;63.78;43.25;;;8.40;61.50;;;;;;4962853;28;114870;-82
2022/11/13 09:44:06;;;;;;;68.07;43.83;;;8.50;61.40;;;;;;4942835;28;114942;-82
2022/11/13 09:55:12;;;;;;;61.83;40.88;;;8.70;61.10;;;;;;4956896;28;115816;-83
2022/11/13 09:59:19;;;;;;;66.35;43.67;;;8.70;61.30;;;;;;4963272;28;119024;-83
2022/11/13 10:03:10;;;;;;;68.13;42.20;;;8.80;61.20;;;;;;4923324;28;114852;-82
2022/11/13 10:06:52;;;;;;;63.33;41.90;;;8.90;61.30;;;;;;4961853;28;114842;-82
2022/11/13 10:09:59;;;;;;;52.75;35.97;;;9.00;61.30;;;;;;4960741;28;115971;-81
2022/11/13 10:13:11;;;;;;;47.05;31.27;;;9.10;61.50;;;;;;4961450;28;114685;-82
2022/11/13 10:16:33;;;;;;;52.38;34.20;;;9.20;61.20;;;;;;4961829;28;114496;-81
2022/11/13 10:19:25;;;;;;;46.70;32.35;;;9.30;61.10;;;;;;4946821;28;114923;-81
2022/11/13 10:22:17;;;;;;;50.63;33.53;;;9.30;61.20;;;;;;4962588;28;114751;-81
2022/11/13 10:25:20;;;;;;;47.28;32.28;;;9.40;60.90;;;;;;4990276;28;114661;-82
2022/11/13 10:28:18;;;;;;;47.28;31.40;;;9.30;61.10;;;;;;5003650;28;117068;-82
2022/11/13 10:31:23;;;;;;;49.17;32.08;;;9.50;60.80;;;;;;4991949;28;115020;-81
2022/11/13 10:34:09;;;;;;;53.63;34.10;;;9.50;60.90;;;;;;4992716;28;115804;-82
2022/11/13 10:37:20;;;;;;;50.38;34.50;;;9.60;60.80;;;;;;5009487;28;114661;-82
2022/11/13 10:40:06;;;;;;;54.85;37.55;;;9.70;60.80;;;;;;5006007;28;114444;-81
2022/11/13 10:42:52;;;;;;;50.33;35.20;;;9.80;60.70;;;;;;5003353;28;114892;-80
2022/11/13 10:45:38;;;;;;;61.67;40.30;;;9.70;60.70;;;;;;5002320;28;114708;-81
2022/11/13 10:48:29;;;;;;;61.22;40.92;;;9.80;60.70;;;;;;4988787;28;114406;-81
2022/11/13 10:51:29;;;;;;;57.88;39.08;;;9.80;60.60;;;;;;5004984;28;114704;-81
2022/11/13 10:54:32;;;;;;;56.70;36.22;;;9.90;60.40;;;;;;5003312;28;116288;-81
2022/11/13 10:57:21;;;;;;;52.10;34.47;;;9.90;60.50;;;;;;5003757;28;115636;-81
2022/11/13 11:00:25;;;;;;;50.58;35.40;;;9.90;60.60;;;;;;5007036;28;116235;-81
2022/11/13 11:03:20;;;;;;;50.38;35.58;;;10.00;60.50;;;;;;5023733;28;115881;-81
2022/11/13 11:06:07;;;;;;;53.80;35.47;;;10.00;60.60;;;;;;5025369;27;115432;-81
2022/11/13 11:08:52;;;;;;;50.88;34.80;;;10.10;60.60;;;;;;5011770;28;115378;-83
2022/11/13 11:14:57;;;;;;;45.93;31.57;;;10.20;60.70;;;;;;5005951;28;116791;-81
2022/11/13 11:17:42;;;;;;;47.47;32.15;;;10.20;60.50;;;;;;5023344;28;114951;-81
2022/11/13 11:20:39;;;;;;;52.58;34.05;;;10.20;60.50;;;;;;5026698;27;115761;-81
2022/11/13 11:23:30;;;;;;;50.42;34.25;;;10.20;60.30;;;;;;5026842;28;114345;-82
2022/11/13 11:26:25;;;;;;;51.92;33.65;;;10.20;60.40;;;;;;5028168;27;114505;-81
2022/11/13 11:29:29;;;;;;;55.30;35.60;;;10.20;60.40;;;;;;5026723;27;114979;-81
2022/11/13 11:32:31;;;;;;;56.92;35.80;;;10.30;60.40;;;;;;5025608;28;116173;-82
2022/11/13 11:35:44;;;;;;;59.88;37.03;;;10.30;60.40;;;;;;5026740;28;114384;-82
2022/11/13 11:38:51;;;;;;;58.20;39.97;;;10.30;60.50;;;;;;5027097;28;114545;-82
2022/11/13 11:41:48;;;;;;;55.72;37.58;;;10.40;60.50;;;;;;5025440;28;117042;-82
2022/11/13 11:44:37;;;;;;;51.58;35.67;;;10.40;60.30;;;;;;4996502;28;117898;-81
2022/11/13 11:47:22;;;;;;;57.55;38.00;;;10.40;60.40;;;;;;5026842;28;114561;-81
2022/11/13 11:50:16;;;;;;;56.10;37.30;;;10.40;60.30;;;;;;5026210;28;116048;-82
2022/11/13 11:53:22;;;;;;;58.22;36.75;;;10.40;60.30;;;;;;5011715;28;115117;-81
2022/11/13 11:56:13;;;;;;;;;;;10.40;60.40;;;;;;4998924;28;115651;-82
2022/11/13 11:59:22;;;;;;;51.30;34.13;;;10.30;60.60;;;;;;5007682;28;114293;-81
2022/11/13 12:02:15;;;;;;;51.95;34.75;;;10.40;60.50;;;;;;5006614;28;114261;-81
2022/11/13 12:05:13;;;;;;;55.47;35.95;;;10.30;60.40;;;;;;5002652;28;114975;-81
2022/11/13 12:08:07;;;;;;;53.78;36.45;;;10.30;60.60;;;;;;5003930;28;115390;-81
2022/11/13 12:11:01;;;;;;;51.17;34.38;;;10.30;60.70;;;;;;5006829;28;115015;-81
2022/11/13 12:13:59;;;;;;;51.40;34.47;;;10.30;60.80;;;;;;4992437;28;114394;-81
2022/11/13 12:17:00;;;;;;;50.22;34.35;;;10.40;60.80;;;;;;5006085;28;114877;-81
2022/11/13 12:19:52;;;;;;;54.03;33.95;;;10.50;60.80;;;;;;5006375;28;114690;-82
2022/11/13 12:22:52;;;;;;;53.80;35.50;;;10.40;60.80;;;;;;5012383;28;114365;-82
2022/11/13 12:25:40;;;;;;;55.67;36.75;;;10.50;60.70;;;;;;5007597;28;114638;-82
2022/11/13 12:28:37;;;;;;;52.13;34.25;;;10.50;60.80;;;;;;5007228;28;114970;-82
2022/11/13 12:31:38;;;;;;;52.95;37.00;;;10.60;60.70;;;;;;5006239;28;116612;-82
2022/11/13 12:34:42;;;;;;;52.30;36.47;;;10.60;60.70;;;;;;5007751;28;114515;-82
2022/11/13 12:37:33;;;;;;;51.38;35.20;;;10.60;60.70;;;;;;5008118;28;116992;-82
2022/11/13 12:40:22;;;;;;;54.83;37.92;;;10.60;60.80;;;;;;5006052;28;115426;-81
2022/11/13 12:43:18;;;;;;;53.67;35.70;;;10.60;60.90;;;;;;5005986;28;114821;-81
2022/11/13 12:46:08;;;;;;;52.03;35.15;;;10.60;60.90;;;;;;5009757;28;118301;-81
2022/11/13 12:48:53;;;;;;;52.50;37.50;;;10.60;61.00;;;;;;5012253;28;114553;-82
2022/11/13 12:51:39;;;;;;;56.55;38.05;;;10.60;61.10;;;;;;5026239;27;114979;-81
2022/11/13 12:55:07;;;;;;;56.22;35.75;;;10.60;61.20;;;;;;5029253;28;116781;-82
2022/11/13 12:57:53;;;;;;;54.10;36.50;;;10.60;61.10;;;;;;5029351;28;114259;-82
2022/11/13 13:00:39;;;;;;;54.97;36.53;;;10.50;61.30;;;;;;5026736;28;114376;-82
2022/11/13 13:03:40;;;;;;;56.55;37.17;;;10.50;61.30;;;;;;5011045;28;116209;-82
2022/11/13 13:07:13;;;;;;;55.13;36.60;;;10.50;61.30;;;;;;5026807;27;114648;-82
2022/11/13 13:10:14;;;;;;;58.88;37.78;;;10.50;61.40;;;;;;5017767;28;114537;-82
2022/11/13 13:13:03;;;;;;;50.10;35.15;;;10.50;61.70;;;;;;5005986;28;115135;-82
2022/11/13 13:15:57;;;;;;;56.33;36.17;;;10.40;61.80;;;;;;5007625;28;114967;-82
2022/11/13 13:18:42;;;;;;;52.00;36.00;;;10.50;61.80;;;;;;5025544;27;114691;-82
2022/11/13 13:21:38;;;;;;;54.13;37.00;;;10.40;61.70;;;;;;5021081;28;115924;-82
2022/11/13 13:24:28;;;;;;;59.20;37.08;;;10.50;61.60;;;;;;4990405;28;114489;-82
2022/11/13 13:27:24;;;;;;;60.63;37.75;;;10.40;61.80;;;;;;5004374;28;115132;-82
2022/11/13 13:30:19;;;;;;;57.00;36.42;;;10.40;61.90;;;;;;5004888;28;114634;-82
2022/11/13 13:33:15;;;;;;;59.05;37.47;;;10.40;62.10;;;;;;5005626;28;114473;-82
2022/11/13 13:36:27;;;;;;;57.08;36.20;;;10.30;62.10;;;;;;5005599;28;114957;-82
2022/11/13 13:39:40;;;;;;;56.40;35.50;;;10.40;62.10;;;;;;5019169;27;115785;-82
2022/11/13 13:42:44;;;;;;;57.38;36.85;;;10.30;62.20;;;;;;5024542;28;115112;-82
2022/11/13 13:45:42;;;;;;;54.90;34.75;;;10.20;62.30;;;;;;5026623;27;114458;-82
2022/11/13 13:48:27;;;;;;;53.35;33.08;;;10.20;62.30;;;;;;5026755;27;114645;-82
2022/11/13 13:51:27;;;;;;;55.55;34.60;;;10.10;62.40;;;;;;5024455;28;114978;-82
2022/11/13 13:54:17;;;;;;;54.22;35.08;;;10.10;62.50;;;;;;5024533;28;114784;-82
2022/11/13 13:57:02;;;;;;;54.38;34.75;;;10.10;62.60;;;;;;5025475;28;114762;-83
2022/11/13 13:59:48;;;;;;;50.50;33.20;;;10.10;62.60;;;;;;5026358;27;114566;-82
2022/11/13 14:02:43;;;;;;;63.97;37.42;;;10.00;62.60;;;;;;4995655;28;115280;-82
2022/11/13 14:05:33;;;;;;;54.00;34.78;;;10.00;62.70;;;;;;5024512;28;114700;-82
2022/11/13 14:08:20;;;;;;;50.47;32.55;;;10.00;62.80;;;;;;5025300;28;114795;-82
2022/11/13 14:11:25;;;;;;;57.22;35.25;;;9.90;62.90;;;;;;5025087;28;114633;-82
2022/11/13 14:14:20;;;;;;;55.80;34.92;;;9.90;63.00;;;;;;5024068;28;118344;-82
2022/11/13 14:17:05;;;;;;;60.65;37.40;;;9.80;63.10;;;;;;4996838;28;114900;-82
2022/11/13 14:19:51;;;;;;;59.38;38.10;;;9.70;63.20;;;;;;4996409;28;114536;-82
2022/11/13 14:22:37;;;;;;;66.63;41.00;;;9.70;63.40;;;;;;5025355;28;114517;-82
2022/11/13 14:25:25;;;;;;;63.58;39.03;;;9.70;63.60;;;;;;5025416;27;114593;-82
2022/11/13 14:28:13;;;;;;;70.03;43.38;;;9.60;63.90;;;;;;5010151;28;114669;-82
2022/11/13 14:31:04;;;;;;;62.30;40.30;;;9.60;64.00;;;;;;5024815;28;114359;-81
2022/11/13 14:33:50;;;;;;;72.72;44.58;;;9.50;64.30;;;;;;5024580;28;114552;-82
2022/11/13 14:36:36;;;;;;;68.70;43.30;;;9.50;64.40;;;;;;5024523;27;115016;-82
2022/11/13 14:39:25;;;;;;;70.45;44.72;;;9.40;64.60;;;;;;5009706;28;114682;-82
2022/11/13 14:42:24;;;;;;;79.85;49.80;;;9.40;64.80;;;;;;5027666;28;114362;-82
2022/11/13 14:45:19;;;;;;;83.45;51.60;;;9.30;65.20;;;;;;5006021;28;114868;-82
2022/11/13 14:48:17;;;;;;;100.93;60.33;;;9.20;65.50;;;;;;5008227;28;114989;-82
2022/11/13 14:51:04;;;;;;;91.90;53.90;;;9.20;65.60;;;;;;5007728;28;114753;-82
2022/11/13 14:54:01;;;;;;;93.85;56.65;;;9.10;65.80;;;;;;4979832;28;114711;-82
2022/11/13 14:56:53;;;;;;;89.32;54.35;;;9.10;66.10;;;;;;5008554;28;114465;-82
2022/11/13 14:59:41;;;;;;;86.25;51.97;;;9.00;66.20;;;;;;5008387;28;114841;-82
2022/11/13 15:02:26;;;;;;;77.97;46.47;;;9.00;66.30;;;;;;5024421;28;115216;-82
2022/11/13 15:05:12;;;;;;;82.40;50.50;;;8.90;66.40;;;;;;5028864;27;114339;-82
2022/11/13 15:07:57;;;;;;;81.97;49.78;;;8.80;66.50;;;;;;5020956;27;118371;-81
2022/11/13 15:10:43;;;;;;;90.97;53.72;;;8.90;66.60;;;;;;5006760;28;115018;-82
2022/11/13 15:13:29;;;;;;;95.25;55.90;;;8.80;66.60;;;;;;5007510;27;116674;-81
2022/11/13 15:16:16;;;;;;;92.75;55.67;;;8.80;66.70;;;;;;5005580;28;114245;-81
2022/11/13 15:19:04;;;;;;;84.15;51.08;;;8.70;66.80;;;;;;5008024;28;114470;-81
2022/11/13 15:21:50;;;;;;;89.30;53.85;;;8.70;67.00;;;;;;5006384;28;116184;-81
2022/11/13 15:24:56;;;;;;;89.25;52.75;;;8.70;66.90;;;;;;5008340;28;114648;-82
2022/11/13 15:27:41;;;;;;;91.65;56.30;;;8.60;66.90;;;;;;5009124;28;114372;-82
2022/11/13 15:30:28;;;;;;;98.32;58.50;;;8.60;66.90;;;;;;5009461;28;114342;-81
2022/11/13 15:33:13;;;;;;;91.95;56.45;;;8.60;67.00;;;;;;5008130;28;115024;-82
2022/11/13 15:35:59;;;;;;;100.25;61.17;;;8.60;66.90;;;;;;5006766;28;114682;-81
2022/11/13 15:38:45;;;;;;;105.15;65.35;;;8.60;67.00;;;;;;5008488;28;114247;-81
2022/11/13 15:41:32;;;;;;;104.53;61.85;;;8.60;67.10;;;;;;4991698;28;114599;-81
2022/11/13 15:44:18;;;;;;;108.60;66.30;;;8.50;67.10;;;;;;5007510;28;116554;-82
2022/11/13 15:47:26;;;;;;;102.53;61.65;;;8.50;67.20;;;;;;5006968;28;114612;-82
2022/11/13 15:50:11;;;;;;;112.60;68.60;;;8.40;67.30;;;;;;5007389;28;114338;-82
2022/11/13 15:52:59;;;;;;;111.47;72.43;;;8.30;67.30;;;;;;5008388;27;116856;-82
2022/11/13 15:55:50;;;;;;;98.28;59.90;;;8.30;67.40;;;;;;5006053;28;115022;-82
2022/11/13 15:58:35;;;;;;;124.78;76.25;;;8.20;67.50;;;;;;5006199;28;115864;-82
2022/11/13 16:01:21;;;;;;;104.75;62.95;;;8.20;67.50;;;;;;5011504;28;114678;-82
2022/11/13 16:04:09;;;;;;;134.00;77.55;;;8.20;67.50;;;;;;5009212;28;114438;-83
2022/11/13 16:06:55;;;;;;;111.65;68.32;;;8.20;67.60;;;;;;5013180;28;114972;-82
2022/11/13 16:09:43;;;;;;;86.80;55.30;;;8.20;67.60;;;;;;5006385;28;114705;-82
2022/11/13 16:12:28;;;;;;;97.55;58.30;;;8.20;67.60;;;;;;5012710;28;114743;-82
2022/11/13 16:15:15;;;;;;;90.88;56.20;;;8.10;67.60;;;;;;5028510;28;114597;-82
2022/11/13 16:18:01;;;;;;;89.07;54.38;;;8.10;67.60;;;;;;5027385;27;114766;-83
2022/11/13 16:20:47;;;;;;;90.97;56.08;;;8.10;67.70;;;;;;5026295;28;117989;-83
2022/11/13 16:23:32;;;;;;;86.68;56.80;;;8.00;67.70;;;;;;5029508;27;114551;-81
2022/11/13 16:26:20;;;;;;;80.15;50.75;;;8.00;67.60;;;;;;5029008;27;114619;-81
2022/11/13 16:29:19;;;;;;;83.50;53.03;;;7.90;67.70;;;;;;5027330;27;115078;-81
2022/11/13 16:32:10;;;;;;;97.95;58.10;;;7.90;67.80;;;;;;5000692;28;115392;-81
2022/11/13 16:34:56;;;;;;;96.78;57.47;;;7.70;67.70;;;;;;4989713;28;114491;-83
2022/11/13 16:37:41;;;;;;;87.68;51.97;;;7.70;68.00;;;;;;5008192;27;114375;-83
2022/11/13 16:40:28;;;;;;;91.95;55.63;;;7.60;68.20;;;;;;5006985;28;115019;-81
2022/11/13 16:43:14;;;;;;;95.72;55.35;;;7.60;68.20;;;;;;5006137;28;114673;-81
2022/11/13 16:45:59;;;;;;;98.20;57.55;;;7.60;68.20;;;;;;5006968;28;114617;-81
2022/11/13 16:48:46;;;;;;;91.20;55.20;;;7.50;68.20;;;;;;5007655;28;114266;-81
2022/11/13 16:51:31;;;;;;;112.38;66.35;;;7.50;68.20;;;;;;5006718;28;116578;-81
2022/11/13 16:54:18;;;;;;;105.63;65.13;;;7.50;68.20;;;;;;5006000;28;116758;-81
2022/11/13 16:57:04;;;;;;;113.90;66.80;;;7.40;68.30;;;;;;5008102;28;114494;-81
2022/11/13 16:59:49;;;;;;;89.95;54.38;;;7.40;68.30;;;;;;5010374;28;114301;-81
2022/11/13 17:02:34;;;;;;;105.88;63.38;;;7.30;68.40;;;;;;5012455;28;115920;-81
2022/11/13 17:05:21;;;;;;;116.40;71.95;;;7.30;68.60;;;;;;5006192;28;118447;-81
2022/11/13 17:08:09;;;;;;;116.40;68.82;;;7.20;68.60;;;;;;5028138;27;114293;-81
2022/11/13 17:10:56;;;;;;;112.43;65.05;;;7.20;68.60;;;;;;5026971;28;114513;-81
2022/11/13 17:13:41;;;;;;;109.00;65.68;;;7.20;68.60;;;;;;5026803;27;114963;-81
2022/11/13 17:16:28;;;;;;;114.40;63.70;;;7.20;68.50;;;;;;5026563;27;116917;-81
2022/11/13 17:19:13;;;;;;;123.38;75.05;;;7.20;68.30;;;;;;5026984;27;114504;-81
2022/11/13 17:21:59;;;;;;;119.22;71.45;;;7.20;68.20;;;;;;5026455;28;114572;-82
2022/11/13 17:24:45;;;;;;;119.53;70.38;;;7.10;68.10;;;;;;5016777;27;115718;-82
2022/11/13 17:27:30;;;;;;;132.35;78.68;;;7.00;68.10;;;;;;4989348;28;115056;-81
2022/11/13 17:30:22;;;;;;;190.75;124.30;;;6.90;68.30;;;;;;5006442;28;114278;-81
2022/11/13 17:33:08;;;;;;;159.20;89.22;;;6.90;68.40;;;;;;5006322;28;114417;-81
2022/11/13 17:35:54;;;;;;;138.77;80.80;;;6.70;68.40;;;;;;5004597;28;116229;-81
2022/11/13 17:38:40;;;;;;;158.18;86.03;;;6.70;68.60;;;;;;5005763;28;114742;-81
2022/11/13 17:41:26;;;;;;;179.65;99.07;;;6.50;69.00;;;;;;5006854;28;114516;-82
2022/11/13 17:44:12;;;;;;;169.88;91.90;;;6.40;69.30;;;;;;5005775;28;114616;-82
2022/11/13 17:46:57;;;;;;;168.82;93.38;;;6.30;69.60;;;;;;5004869;28;114955;-82